Aeroporto :
LOGIN :

Iscrizione | Disclaimer

   EN    FR    IT 

 










Sommario :    VFR   VFR Marginale   IFR   IFR Intensivo   IFR Molto Intensivo
Visibilità : 
Base nubi : 
>= 8 km
>= 3000ft
5 / 8 km
1000 / 3000 ft
1500m / 5 km
500 / 1000 ft
800 / 1500m
200 / 500 ft
< 800m
< 200 ft
Simboli :   Temporali  Nebbia  Neve Forte  Precipitazioni Forti  Vento > 20 kt
SIGMETs :   Varie  Temporali  Ghiacco  Turbolenza  Onda orograficha  Ceneri Vulcaniche







- Altitudine del aeroporto : 5600 ft
- Codice IATA : SMV


LSZS - Samedan

ULTIMO METAR :
  • 241150Z 30008KT CAVOK 15/M05 Q1016 RMK M

METARs OBSOLETI :
  • 241120Z 31008KT 260V340 CAVOK 15/M08 Q1017 RMK L
  • 241050Z 04010KT CAVOK 15/M06 Q1017 RMK K
  • 241020Z VRB06KT CAVOK 14/M05 Q1017 RMK J
  • 240950Z VRB03KT CAVOK 14/M05 Q1017 RMK I
  • 240920Z 07003KT 020V170 CAVOK 13/M06 Q1017 RMK H
  • 240850Z VRB03KT CAVOK 12/M05 Q1017 RMK G

TAF TAF LSZS
Valido dal 24 a 12 ore il 24 a 21 ore UTC


241125Z 2412/2421 04005KT CAVOK TX18/2415Z
PROB40 2412/2419 9999 FEW050
ATIS : +41 81 834 93 24
Nessun NOTAM noto per questo aeroporto.



MetMap, La meteo Aeronautica in un colpo d'occhio ! - Copyright ORBIFLY Dicembre 2007 - Disclaimer

ORBIFLY MET'MAP TEAM :

Programmazione e sviluppo : Alexandra Zaïnal
Concezione e sviluppo : Baudouin d'Aumeries
Co-Programmazione e sviluppo : Marc-Olivier Méhu
Supporto tecnico e logistico : Manuel Goepfert
Aiuto per la traduzione : Arnaldo La Scala

Contatto : metmap@orbifly.com




FONTI E CREDITI :

   NOAA